It's Saturday,
December 7th, 2019
User not logged in
[Run Race Header Image][Run Race logo]
  
Race webcasting is attempted by race directors and their support staff. Please remember that conditions under which they're working may make it difficult to post timely webcast updates... your interest and patience is appreciated!
Race Information
Race Name:Kettle Moraine Endurance Races 100/100k/50k/38 mile run run
Location:LaGrange
State:Wisconsin, United States
 button: button: Webcast Autoplay
Event Information
Name of Event:Kettle Moraine 100m
Distance:100 Miles
Started Date/Time:Saturday June 1st, 2019, 5:59:59.29 am
button: Assign Numbers  
Checkpoint:Antique Lane Inbound
Distance:44.3 Miles
Gun Start Time:Saturday June 1st, 2019 5:59:59.29 am
Calculate Chip Start Time:< not set >
Y or N... Calculate splits based upon participant chip start time?
Allow Early Chip Start Time:< not set >
Y or N... Allow participants a chip start time prior to gun start?
Pos Race
Number
NameAgeSexTimePace 
1222Jon Noll34M6:42:25.39:05.0Sat Jun 1st 12:42:24 pm
2125DAVID HANSEN33M7:01:26.59:30.8Sat Jun 1st 1:01:25 pm
3169Jonathan Koscinski38M7:13:14.59:46.8Sat Jun 1st 1:13:13 pm
4157Jason Keeler36M7:21:01.09:57.3Sat Jun 1st 1:21:00 pm
5186James Luebke36M7:27:46.810:06.5Sat Jun 1st 1:27:46 pm
6134Lindsay Henkels39F7:40:51.110:24.2Sat Jun 1st 1:40:50 pm
7139Michael Hinterberg40M7:46:31.510:31.9Sat Jun 1st 1:46:30 pm
8322Lisa Wonneberg38F7:59:13.210:49.1Sat Jun 1st 1:59:12 pm
9246Tom Rauen36M8:03:03.210:54.2Sat Jun 1st 2:03:02 pm
10201Abe Mendoza42M8:03:32.010:54.9Sat Jun 1st 2:03:31 pm
1144Stacey Buckley43F8:04:43.510:56.5Sat Jun 1st 2:04:42 pm
12164Scott Klopfenstein48M8:06:43.710:59.2Sat Jun 1st 2:06:43 pm
13126Jon Hanson42M8:06:50.210:59.4Sat Jun 1st 2:06:49 pm
14173Jon Laack33M8:07:16.011:00.0Sat Jun 1st 2:07:15 pm
15110Bibo Gao41F8:09:35.111:03.1Sat Jun 1st 2:09:34 pm
16315Christine Westcott49F8:13:26.411:08.3Sat Jun 1st 2:13:25 pm
1758Emily Collins40F8:18:11.211:14.7Sat Jun 1st 2:18:10 pm
1838Curt brey39M8:19:25.311:16.4Sat Jun 1st 2:19:24 pm
1932Jamie Blumentritt31F8:22:03.011:20.0Sat Jun 1st 2:22:02 pm
20135Lucas Henson34M8:24:02.211:22.7Sat Jun 1st 2:24:01 pm
212Timothy Adamski30M8:25:45.311:25.0Sat Jun 1st 2:25:44 pm
221William Abel46M8:27:22.011:27.2Sat Jun 1st 2:27:21 pm
23215Peeter Muursepp49M8:27:26.711:27.3Sat Jun 1st 2:27:25 pm
24299John Truelove51M8:28:22.511:28.5Sat Jun 1st 2:28:21 pm
25217ERIC NELSON42M8:31:55.611:33.4Sat Jun 1st 2:31:54 pm
26255Mike Rohner39M8:32:30.311:34.1Sat Jun 1st 2:32:29 pm
27266Mike Schmitt42M8:33:18.111:35.2Sat Jun 1st 2:33:17 pm
28301David Ulbert61M8:33:25.311:35.4Sat Jun 1st 2:33:24 pm
29309Mike Wallin35M8:34:01.511:36.2Sat Jun 1st 2:34:00 pm
30325Keith Wurm39M8:36:02.411:38.9Sat Jun 1st 2:36:01 pm
31282Anthony Steeno39M8:36:09.911:39.1Sat Jun 1st 2:36:09 pm
3220Jeffrey Lenard53M8:39:53.811:44.1Sat Jun 1st 2:39:53 pm
33153Brian Jubeck42M8:40:25.111:44.9Sat Jun 1st 2:40:24 pm
34312Frayah Wasmund34F8:42:22.111:47.5Sat Jun 1st 2:42:21 pm
35122Peter Hancovsky22M8:45:48.011:52.1Sat Jun 1st 2:45:47 pm
36176Tim Landewe45M8:46:01.011:52.4Sat Jun 1st 2:46:00 pm
37117Matt Granstrom40M8:46:33.511:53.2Sat Jun 1st 2:46:32 pm
3855Anthony Ciske41M8:46:36.411:53.2Sat Jun 1st 2:46:35 pm
3923Andrew Barr31M8:47:50.611:54.9Sat Jun 1st 2:47:49 pm
40148Tony Jensen30M8:49:27.011:57.1Sat Jun 1st 2:49:26 pm
4160Jess Conboy38M8:50:16.911:58.2Sat Jun 1st 2:50:16 pm
4285Chris Dwyer39M8:50:59.611:59.2Sat Jun 1st 2:50:58 pm
4350Miguel Carreon52M8:51:30.911:59.9Sat Jun 1st 2:51:30 pm
44104Jennifer Freeman38F8:51:34.012:00.0Sat Jun 1st 2:51:33 pm
4575Tammy Davis40F8:52:07.412:00.7Sat Jun 1st 2:52:06 pm
46138Jason Herrboldt40M8:52:47.912:01.6Sat Jun 1st 2:52:47 pm
4788Jen Even34F8:54:55.612:04.5Sat Jun 1st 2:54:54 pm
4883John Duncombe42M8:55:52.412:05.8Sat Jun 1st 2:55:51 pm
49209Kyle Moss28M8:56:03.812:06.0Sat Jun 1st 2:56:03 pm
50260Barry Sackett50M8:57:53.212:08.5Sat Jun 1st 2:57:52 pm
5177Relena Del Toro Ribbons32F9:00:21.112:11.9Sat Jun 1st 3:00:20 pm
52150Ray Johnson40M9:01:52.412:13.9Sat Jun 1st 3:01:51 pm
53276David Smith38M9:01:57.712:14.0Sat Jun 1st 3:01:56 pm
54184Erika Lohn46F9:02:08.512:14.3Sat Jun 1st 3:02:07 pm
5547Rachel Burke34F9:02:30.312:14.8Sat Jun 1st 3:02:29 pm
56278Mark Smith40M9:05:48.712:19.2Sat Jun 1st 3:05:47 pm
57182Jeff Leuwerke38M9:06:13.712:19.8Sat Jun 1st 3:06:13 pm
58241Bryan Powers51M9:06:26.812:20.1Sat Jun 1st 3:06:26 pm
59136Ilja Herdt35M9:10:44.712:25.9Sat Jun 1st 3:10:44 pm
60261Chris Salamasick33M9:11:19.112:26.7Sat Jun 1st 3:11:18 pm
61245Tony Rajkowski41M9:11:59.112:27.6Sat Jun 1st 3:11:58 pm
62298Ashley Truan35F9:13:44.112:30.0Sat Jun 1st 3:13:43 pm
63219Kurt Neumann44M9:15:11.812:32.0Sat Jun 1st 3:15:11 pm
64171Predrag Krkic64M9:15:34.712:32.5Sat Jun 1st 3:15:33 pm
6570Jason Crowe46M9:16:36.712:33.9Sat Jun 1st 3:16:36 pm
66103Steve Fredrickson39M9:17:27.012:35.0Sat Jun 1st 3:17:26 pm
67127Gina Harcrow47F9:20:07.212:38.6Sat Jun 1st 3:20:06 pm
68181Lori Leonard57F9:20:08.512:38.7Sat Jun 1st 3:20:07 pm
6972Kristen Cwik41F9:20:09.112:38.7Sat Jun 1st 3:20:08 pm
7022Shaun Barnes47M9:23:16.212:42.9Sat Jun 1st 3:23:15 pm
7127Brandon Becker42M9:23:16.712:42.9Sat Jun 1st 3:23:16 pm
7282Craig Duhn43M9:24:24.912:44.4Sat Jun 1st 3:24:24 pm
73313Brian Wean37M9:24:56.212:45.2Sat Jun 1st 3:24:55 pm
74310Ronghui Wang51M9:26:33.812:47.4Sat Jun 1st 3:26:33 pm
7515James Baetz41M9:27:25.212:48.5Sat Jun 1st 3:27:24 pm
76141Russell House22M9:27:41.612:48.9Sat Jun 1st 3:27:40 pm
77251Parker Rios52M9:28:26.812:49.9Sat Jun 1st 3:28:26 pm
78318Brad Whitson55M9:28:28.212:49.9Sat Jun 1st 3:28:27 pm
7951Steven Kuntz41M9:29:25.512:51.2Sat Jun 1st 3:29:24 pm
80140Laura Hoban39F9:30:25.212:52.6Sat Jun 1st 3:30:24 pm
81196Candice McMackin46F9:31:20.312:53.8Sat Jun 1st 3:31:19 pm
8252Brian Cavanaugh38M9:31:28.412:54.0Sat Jun 1st 3:31:27 pm
83233Jake Peterson29M9:32:14.812:55.1Sat Jun 1st 3:32:14 pm
84214Steve Murray55M9:32:16.412:55.1Sat Jun 1st 3:32:15 pm
85256Moriel Rothman-Zecher29M9:36:01.213:00.2Sat Jun 1st 3:36:00 pm
86227John Papiernik34M9:37:39.613:02.4Sat Jun 1st 3:37:38 pm
8787Mike Elsbury35M9:37:39.913:02.4Sat Jun 1st 3:37:39 pm
88212Andrew Murphy35M9:37:41.413:02.4Sat Jun 1st 3:37:40 pm
89118Lanier Greenhaw48M9:39:15.213:04.5Sat Jun 1st 3:39:14 pm
90225Charlie Ortiz39M9:40:04.013:05.6Sat Jun 1st 3:40:03 pm
9186Stefan Elbel46M9:40:23.913:06.1Sat Jun 1st 3:40:23 pm
92206Matt Monroe47M9:40:46.213:06.6Sat Jun 1st 3:40:45 pm
9311Jon Archer35M9:41:08.713:07.1Sat Jun 1st 3:41:07 pm
94147Christian Jensen41M9:42:23.613:08.8Sat Jun 1st 3:42:22 pm
95154David Just59M9:45:24.913:12.9Sat Jun 1st 3:45:24 pm
96179Matthew Lee40M9:45:26.313:12.9Sat Jun 1st 3:45:25 pm
97277Malcolm Smith56M9:46:10.413:13.9Sat Jun 1st 3:46:09 pm
98195Shannon McFarland43M9:46:57.713:15.0Sat Jun 1st 3:46:56 pm
9940Kurt Brown52M9:47:31.613:15.7Sat Jun 1st 3:47:30 pm
100174Joshua Lacey34M9:47:44.313:16.0Sat Jun 1st 3:47:43 pm
101244Erik Raivo35M9:48:19.313:16.8Sat Jun 1st 3:48:18 pm
102288Paul Swindle39M9:49:18.713:18.2Sat Jun 1st 3:49:18 pm
10378Paul Deuchar43M9:49:24.613:18.3Sat Jun 1st 3:49:23 pm
10449Ausra Butkeviciute42F9:49:39.813:18.6Sat Jun 1st 3:49:39 pm
105237Richard Plezia60M9:49:57.113:19.0Sat Jun 1st 3:49:56 pm
106293Barry Thrune43M9:50:10.813:19.3Sat Jun 1st 3:50:10 pm
1076Alisha Alness32F9:51:38.213:21.3Sat Jun 1st 3:51:37 pm
108296Jaymz Touchstone51M9:52:02.613:21.9Sat Jun 1st 3:52:01 pm
109146Stacy Jantz27F9:52:20.013:22.3Sat Jun 1st 3:52:19 pm
110235Josh Phillips38M9:53:39.413:24.0Sat Jun 1st 3:53:38 pm
111314Tim Wegner53M9:55:20.013:26.3Sat Jun 1st 3:55:19 pm
112208William Morrissey37M9:56:22.413:27.7Sat Jun 1st 3:56:21 pm
113203Scott Meyers51M9:57:22.013:29.1Sat Jun 1st 3:57:21 pm
114119Andy Hahn35M9:57:57.913:29.9Sat Jun 1st 3:57:57 pm
115226Adam Page35M9:58:10.513:30.2Sat Jun 1st 3:58:09 pm
116243Meghan Prohaska30F9:58:55.613:31.2Sat Jun 1st 3:58:54 pm
11745Mike Bull44M10:00:24.713:33.2Sat Jun 1st 4:00:23 pm
11819Laney Baris44F10:01:07.813:34.2Sat Jun 1st 4:01:07 pm
119144stephanie hurtado38F10:01:08.913:34.2Sat Jun 1st 4:01:08 pm
12071Bill Curry39M10:01:41.313:34.9Sat Jun 1st 4:01:40 pm
121223Faye Norby37F10:01:58.013:35.3Sat Jun 1st 4:01:57 pm
122317Tony Weyers49M10:02:12.313:35.6Sat Jun 1st 4:02:11 pm
12374Heather Davenport52F10:02:54.513:36.6Sat Jun 1st 4:02:53 pm
124172Jason Kumlien49M10:03:15.413:37.1Sat Jun 1st 4:03:14 pm
125102Douglas Franklin38M10:03:33.613:37.5Sat Jun 1st 4:03:32 pm
126248Jessica Rettig40F10:06:00.813:40.8Sat Jun 1st 4:06:00 pm
127303Brent Vanderhoof48M10:08:06.213:43.6Sat Jun 1st 4:08:05 pm
128191Panagiotis MALLIARIS53M10:10:19.413:46.6Sat Jun 1st 4:10:18 pm
12993Bryan Fillman47M10:10:33.613:46.9Sat Jun 1st 4:10:32 pm
130284Scott Stith37M10:12:32.313:49.6Sat Jun 1st 4:12:31 pm
13153Todd Chandler51M10:12:33.613:49.7Sat Jun 1st 4:12:32 pm
13292David Files44M10:12:56.613:50.2Sat Jun 1st 4:12:55 pm
13369Jamie Crouse39F10:14:07.713:51.8Sat Jun 1st 4:14:06 pm
134213Morgan Murphy42M10:14:41.913:52.5Sat Jun 1st 4:14:41 pm
13517Christopher Baldwin46M10:14:47.913:52.7Sat Jun 1st 4:14:47 pm
13673Ronnie Daniel49M10:14:49.213:52.7Sat Jun 1st 4:14:48 pm
137252Mary Rittgers38F10:15:10.913:53.2Sat Jun 1st 4:15:10 pm
138291Jennifer Thoennes37F10:16:37.213:55.2Sat Jun 1st 4:16:36 pm
139304Tim Vanderhoof51M10:16:40.213:55.2Sat Jun 1st 4:16:39 pm
14021Michael Barnaby36M10:17:04.513:55.8Sat Jun 1st 4:17:03 pm
141123Geoff Hanley43M10:17:25.813:56.2Sat Jun 1st 4:17:25 pm
142275Jason Shrontz39M10:17:38.713:56.5Sat Jun 1st 4:17:37 pm
143202David Mentjes49M10:17:50.413:56.8Sat Jun 1st 4:17:49 pm
144161Mike Kenney41M10:18:15.313:57.4Sat Jun 1st 4:18:14 pm
145106austin frion36M10:19:00.013:58.4Sat Jun 1st 4:18:59 pm
1467Cheryl Anderson46F10:19:13.213:58.7Sat Jun 1st 4:19:12 pm
147279Philip Spicer28M10:19:55.213:59.6Sat Jun 1st 4:19:54 pm
148112Matt Goff32M10:20:32.514:00.5Sat Jun 1st 4:20:31 pm
14943Becky Brudwick52F10:21:48.614:02.2Sat Jun 1st 4:21:47 pm
15063Ryan Cooper43M10:22:53.714:03.6Sat Jun 1st 4:22:52 pm
151143jeremy hurm42M10:23:59.314:05.1Sat Jun 1st 4:23:58 pm
152193Gregory Marshall29M10:24:08.814:05.3Sat Jun 1st 4:24:08 pm
153316Trent Wester34M10:25:29.514:07.2Sat Jun 1st 4:25:28 pm
1549Jeremy Anderson45M10:25:47.514:07.6Sat Jun 1st 4:25:46 pm
15535Hope Bollig39F10:26:28.614:08.5Sat Jun 1st 4:26:27 pm
156167nathan koehn40M10:27:03.714:09.3Sat Jun 1st 4:27:03 pm
157230Jason Patera43M10:27:22.814:09.7Sat Jun 1st 4:27:22 pm
15829Nicole Bernardin39F10:27:34.214:10.0Sat Jun 1st 4:27:33 pm
159239Matthew Poore38M10:28:04.914:10.7Sat Jun 1st 4:28:04 pm
160100Sara Foster43F10:28:21.814:11.1Sat Jun 1st 4:28:21 pm
16176Sonya Decker52F10:28:49.514:11.7Sat Jun 1st 4:28:48 pm
162207Erik Morrell42M10:30:09.314:13.5Sat Jun 1st 4:30:08 pm
16342Jason Brozek39M10:30:22.714:13.8Sat Jun 1st 4:30:22 pm
164268Trudi Schoening40F10:31:40.014:15.5Sat Jun 1st 4:31:39 pm
165283Sharleen Stevens36F10:33:23.214:17.9Sat Jun 1st 4:33:22 pm
16667Gary Craig31M10:33:52.014:18.5Sat Jun 1st 4:33:51 pm
167218Mark Nelson50M10:34:17.514:19.1Sat Jun 1st 4:34:16 pm
168113Jeff Goodmanson56M10:34:18.814:19.1Sat Jun 1st 4:34:18 pm
16956Ryan Clayton35M10:35:25.314:20.6Sat Jun 1st 4:35:24 pm
17091Troy Figgins49M10:36:28.314:22.0Sat Jun 1st 4:36:27 pm
171204Jonathan Mireles35M10:37:01.514:22.8Sat Jun 1st 4:37:00 pm
17228Tim Belleau53M10:38:22.514:24.6Sat Jun 1st 4:38:21 pm
173292Paul Thomson45M10:38:23.214:24.6Sat Jun 1st 4:38:22 pm
174270Liz Schumacher37F10:38:24.414:24.7Sat Jun 1st 4:38:23 pm
175198COLE MCNABB31M10:40:43.014:27.8Sat Jun 1st 4:40:42 pm
176200Ryan Menard45M10:43:13.714:31.2Sat Jun 1st 4:43:12 pm
177329Tammy Zyduck54F10:43:24.014:31.4Sat Jun 1st 4:43:23 pm
178265Dustin Schmidt33M10:43:30.214:31.6Sat Jun 1st 4:43:29 pm
179289Christopher Tebeau48M10:43:52.214:32.1Sat Jun 1st 4:43:51 pm
18013Todd Arnold39M10:44:10.414:32.5Sat Jun 1st 4:44:09 pm
18116Corey Baker49M10:44:48.914:33.3Sat Jun 1st 4:44:48 pm
182152Jimmy Jones40M10:45:55.714:34.8Sat Jun 1st 4:45:55 pm
183319Kim Willison49F10:47:32.814:37.0Sat Jun 1st 4:47:32 pm
184269Ann Scholl49F10:47:35.214:37.1Sat Jun 1st 4:47:34 pm
18546Lucy Burke44F10:47:37.314:37.1Sat Jun 1st 4:47:36 pm
186250Michael Riordan35M10:48:23.814:38.2Sat Jun 1st 4:48:23 pm
187128Jaime Hardgrove39F10:48:27.214:38.3Sat Jun 1st 4:48:26 pm
188311Ryan Wanless41M10:48:38.214:38.5Sat Jun 1st 4:48:37 pm
189192Nick Mariotti40M10:48:40.514:38.6Sat Jun 1st 4:48:39 pm
19096Jeremy Fischer42M10:48:52.714:38.8Sat Jun 1st 4:48:52 pm
191228Michael Parker34M10:49:47.314:40.1Sat Jun 1st 4:49:46 pm
19210Scott Anderson37M10:49:58.214:40.3Sat Jun 1st 4:49:57 pm
193264Nick Schaid34M10:50:02.814:40.4Sat Jun 1st 4:50:02 pm
194142Laura Hufschmidt38F10:50:44.414:41.4Sat Jun 1st 4:50:43 pm
195194Evan McDoniels37M10:52:24.914:43.6Sat Jun 1st 4:52:24 pm
1963Paul Ahearn47M10:52:36.814:43.9Sat Jun 1st 4:52:36 pm
19739Linda Britz49F10:53:41.914:45.4Sat Jun 1st 4:53:41 pm
198211Peter Mulligan53M10:53:45.614:45.5Sat Jun 1st 4:53:44 pm
199272Dan-O Semsel52M10:54:14.014:46.1Sat Jun 1st 4:54:13 pm
20095David Fischer56M10:55:02.214:47.2Sat Jun 1st 4:55:01 pm
201145Scott Irwin54M10:55:35.514:47.9Sat Jun 1st 4:55:34 pm
202258Ritzy Running23F10:57:05.714:50.0Sat Jun 1st 4:57:04 pm
2034Sevil Aksoy36F10:58:01.414:51.2Sat Jun 1st 4:58:00 pm
204247Barry Reece49M11:00:05.914:54.0Sat Jun 1st 5:00:05 pm
205180Aurora LeMay31F11:01:08.114:55.4Sat Jun 1st 5:01:07 pm
206305Nikki Vapensky Marvel49F11:03:20.214:58.4Sat Jun 1st 5:03:19 pm
207259Daryl Saari56M11:03:56.514:59.2Sat Jun 1st 5:03:55 pm
208273Shawn Severson46F11:04:31.315:00.0Sat Jun 1st 5:04:30 pm
209263Geni Scalio48F11:05:08.015:00.9Sat Jun 1st 5:05:07 pm
210107Jeni Funk-Miller50F11:05:10.015:00.9Sat Jun 1st 5:05:09 pm
21197Tara Flesch40F11:06:53.015:03.2Sat Jun 1st 5:06:52 pm
212238Daria Podejko46F11:07:00.415:03.4Sat Jun 1st 5:06:59 pm
213286Stephen Strauss64M11:09:25.115:06.7Sat Jun 1st 5:09:24 pm
214262Kevin Sas35M11:13:44.015:12.5Sat Jun 1st 5:13:43 pm
21537Ryan Borucki41M11:13:45.315:12.5Sat Jun 1st 5:13:44 pm
216216Mack Naber35M11:14:02.615:12.9Sat Jun 1st 5:14:01 pm
217111Megan Gibson39F11:15:55.415:15.5Sat Jun 1st 5:15:54 pm
218197todd mcmillion54M11:15:57.915:15.5Sat Jun 1st 5:15:57 pm
219285Arno Stoffel50M11:16:39.015:16.5Sat Jun 1st 5:16:38 pm
220149Nathan Johnson36M11:19:29.615:20.3Sat Jun 1st 5:19:28 pm
2218Jay Anderson46M11:20:35.015:21.8Sat Jun 1st 5:20:34 pm
222165Leigh Knaus38F11:21:58.615:23.7Sat Jun 1st 5:21:57 pm
223166Kendra Kneer38F11:22:01.715:23.7Sat Jun 1st 5:22:01 pm
224205Andrew Mitchel55M11:22:50.515:24.8Sat Jun 1st 5:22:49 pm
225151ERROL JONES69M11:23:55.815:26.3Sat Jun 1st 5:23:55 pm
22612Anjanette Arnold43F11:24:32.815:27.2Sat Jun 1st 5:24:32 pm
227210Jen Mullen45F11:26:55.415:30.4Sat Jun 1st 5:26:54 pm
228130Jason Hastings47M11:26:56.815:30.4Sat Jun 1st 5:26:56 pm
229295Joel Toews41M11:27:05.015:30.6Sat Jun 1st 5:27:04 pm
230254arturo Rodriguez42M11:27:19.115:30.9Sat Jun 1st 5:27:18 pm
231229Philip Parsons40M11:28:19.815:32.3Sat Jun 1st 5:28:19 pm
232137Jen Herdzina31F11:29:41.315:34.1Sat Jun 1st 5:29:40 pm
233131Shannon Haus48M11:30:42.415:35.5Sat Jun 1st 5:30:41 pm
23418Angela Barbera58F11:31:51.115:37.0Sat Jun 1st 5:31:50 pm
235129Josh Harris33M11:32:15.315:37.6Sat Jun 1st 5:32:14 pm
236294John Tiwet52M11:32:31.715:38.0Sat Jun 1st 5:32:31 pm
237115Kelli Gorski39F11:32:48.115:38.3Sat Jun 1st 5:32:47 pm
238308Erica Wagner32F11:32:49.615:38.4Sat Jun 1st 5:32:48 pm
2395Richard Albanese46M11:36:03.215:42.7Sat Jun 1st 5:36:02 pm
240170Randy Kreill56M11:39:36.515:47.6Sat Jun 1st 5:39:35 pm
241267Andy Schmitz41M11:45:13.815:55.2Sat Jun 1st 5:45:13 pm
242321torrey wilson28F11:45:58.615:56.2Sat Jun 1st 5:45:57 pm
243187Jeffery Lung40M11:46:42.815:57.2Sat Jun 1st 5:46:42 pm
24462Jim Cooper50M11:46:50.215:57.3Sat Jun 1st 5:46:49 pm
245306Edna Jackeline Vazquez Lung37F11:48:01.015:58.9Sat Jun 1st 5:48:00 pm
246133jon hendren57M11:48:39.115:59.8Sat Jun 1st 5:48:38 pm
247326Salli Scott Young46F11:52:18.216:04.7Sat Jun 1st 5:52:17 pm
248253Tara Roberts39F11:52:34.616:05.1Sat Jun 1st 5:52:33 pm
249177Brian Landstrom67M11:52:55.316:05.6Sat Jun 1st 5:52:54 pm
25034Irina Boggie-Miloserdova59F11:52:57.516:05.6Sat Jun 1st 5:52:56 pm
25165Carleen Coulter52F11:53:47.416:06.8Sat Jun 1st 5:53:46 pm
252190Elizabeth Male28F11:54:13.716:07.4Sat Jun 1st 5:54:12 pm
253257Jeffrey Ruiz53M11:54:25.216:07.6Sat Jun 1st 5:54:24 pm
25448Susan Bush51F11:54:29.416:07.7Sat Jun 1st 5:54:28 pm
25564Daniel Cordova40M11:54:34.516:07.8Sat Jun 1st 5:54:33 pm
256323Karen Wray54F11:54:45.816:08.1Sat Jun 1st 5:54:45 pm
257116Joe Gow56M11:54:47.516:08.1Sat Jun 1st 5:54:46 pm
258189Jennifer Majewski35F11:55:17.916:08.8Sat Jun 1st 5:55:17 pm
25980John Doyle58M11:55:31.516:09.1Sat Jun 1st 5:55:30 pm
260281Josh Stebbins32M12:05:38.716:22.8Sat Jun 1st 6:05:37 pm
26159Jennell Colwell40F12:05:41.116:22.9Sat Jun 1st 6:05:40 pm
262324Kenny Wunder42M12:06:35.916:24.1Sat Jun 1st 6:06:35 pm
26366Ezra Coutre30M12:06:37.616:24.1Sat Jun 1st 6:06:36 pm
264183Nile Limbach25M12:07:21.616:25.1Sat Jun 1st 6:07:20 pm
265290Josh TenBrink38M12:08:56.116:27.3Sat Jun 1st 6:08:55 pm
266121Becca Hamm McMillan30F12:10:25.116:29.3Sat Jun 1st 6:10:24 pm
267249Kimmy Riley58F12:11:06.816:30.2Sat Jun 1st 6:11:06 pm
26826Jon Beard64M12:12:31.216:32.1Sat Jun 1st 6:12:30 pm
269108Carl Galdine46M12:13:41.416:33.7Sat Jun 1st 6:13:40 pm
270160Michael Kennedy36M12:19:42.616:41.9Sat Jun 1st 6:19:41 pm
271159Mandi Kennedy36F12:19:44.216:41.9Sat Jun 1st 6:19:43 pm
272242Noah Praetz42M12:25:09.816:49.3Sat Jun 1st 6:25:09 pm
273320Dennis wilson61M12:26:20.416:50.8Sat Jun 1st 6:26:19 pm
274101Jenny Fox34F12:27:36.316:52.6Sat Jun 1st 6:27:35 pm
275175Traci Lambert-Cwerenz58F12:28:15.516:53.4Sat Jun 1st 6:28:14 pm
27699Ron Foster52M12:39:04.017:08.1Sat Jun 1st 6:39:03 pm
277240REGAN POURCHOT59M12:42:34.817:12.8Sat Jun 1st 6:42:34 pm
278185Radek Lopusnik45M12:43:13.817:13.7Sat Jun 1st 6:43:13 pm
279156brandon karl43M12:58:40.217:34.6Sat Jun 1st 6:58:39 pm
280221kimberly nickel54F13:22:33.018:07.0Sat Jun 1st 7:22:32 pm
281158Evie Kellogg39F13:46:00.018:38.7

Event Information
Name of Event:Kettle Moraine 100k
Distance:100 Kilometers
Started Date/Time:Saturday June 1st, 2019, 5:59:59.29 am
button: Assign Numbers 

Event Information
Name of Event:Kettle Team Relay
Distance:100 Miles
Started Date/Time:Saturday June 1st, 2019, 5:59:59.29 am
button: Assign Numbers 

Event Information
Name of Event:Kettle Moraine 50k
Distance:50 Kilometers
Started Date/Time:Saturday June 1st, 2019, 1:00:00.20 pm
button: Assign Numbers 

Event Information
Name of Event:Kettle 38 mile Fun Run
Distance:38 Miles
Scheduled Date/Time:Saturday June 1, 2019, 5:30 pm
button: Assign Numbers 
2004-2019 : All rights reserved
Terms and Conditions